Time;durP1;ratioP1;P1;durP2;ratioP2;P2;SDS_P1;SDS_P2;PMS_P1;PMS_P2;Temp;Humidity;BMP_temperature;BMP_pressure;BME280_temperature;BME280_humidity;BME280_pressure;Samples;Min_cycle;Max_cycle;Signal;HPM_P1;HPM_P2
2021/07/17 00:01:09;;;;;;;36.67;17.87;;;18.90;96.30;;;;;;4989206;28;20267;-73
2021/07/17 00:03:35;;;;;;;34.13;17.13;;;18.80;95.90;;;;;;4987314;28;20246;-74
2021/07/17 00:06:02;;;;;;;33.87;16.20;;;18.80;95.90;;;;;;4989459;28;20445;-74
2021/07/17 00:08:28;;;;;;;40.13;19.10;;;18.80;95.80;;;;;;4987593;28;20429;-75
2021/07/17 00:10:54;;;;;;;36.57;18.60;;;18.80;95.60;;;;;;4989175;28;20458;-74
2021/07/17 00:13:20;;;;;;;39.07;18.70;;;18.80;96.00;;;;;;4978044;28;20197;-74
2021/07/17 00:15:50;;;;;;;38.97;18.20;;;18.70;95.40;;;;;;4983419;28;20883;-74
2021/07/17 00:18:17;;;;;;;33.17;17.27;;;18.70;95.70;;;;;;4989759;28;20441;-74
2021/07/17 00:20:45;;;;;;;40.30;19.07;;;18.70;96.00;;;;;;4985068;28;20425;-74
2021/07/17 00:23:11;;;;;;;46.63;19.87;;;18.70;96.00;;;;;;4988169;28;21015;-74
2021/07/17 00:25:37;;;;;;;48.37;21.00;;;18.60;96.00;;;;;;4993194;28;20477;-74
2021/07/17 00:28:03;;;;;;;35.67;17.10;;;18.60;96.00;;;;;;4991649;28;20438;-74
2021/07/17 00:30:28;;;;;;;43.70;19.37;;;18.50;96.10;;;;;;4986764;28;20541;-74
2021/07/17 00:32:54;;;;;;;35.00;18.53;;;18.50;95.90;;;;;;4994438;28;20417;-74
2021/07/17 00:35:21;;;;;;;44.07;22.07;;;18.50;96.10;;;;;;4991499;28;20221;-75
2021/07/17 00:37:47;;;;;;;42.43;18.63;;;18.50;96.10;;;;;;4994544;28;20294;-74
2021/07/17 00:40:14;;;;;;;36.80;18.53;;;18.60;96.40;;;;;;4994045;28;20449;-75
2021/07/17 00:42:44;;;;;;;44.83;20.40;;;18.60;96.30;;;;;;4980714;28;20220;-74
2021/07/17 00:45:10;;;;;;;43.43;20.10;;;18.60;96.20;;;;;;4988430;28;20461;-75
2021/07/17 00:47:37;;;;;;;41.63;20.17;;;18.60;96.00;;;;;;4992752;28;20785;-76
2021/07/17 00:50:10;;;;;;;36.50;19.00;;;18.60;95.80;;;;;;4994963;28;20425;-75
2021/07/17 00:52:36;;;;;;;39.80;18.77;;;18.40;95.90;;;;;;4987847;28;20420;-75
2021/07/17 00:55:04;;;;;;;42.73;19.47;;;18.30;96.30;;;;;;4993672;28;21014;-74
2021/07/17 00:57:33;;;;;;;41.87;19.00;;;18.30;96.60;;;;;;4983671;28;20456;-74
2021/07/17 01:00:00;;;;;;;38.87;18.67;;;18.30;96.70;;;;;;4986329;28;20811;-74
2021/07/17 01:02:30;;;;;;;43.33;21.33;;;18.40;96.70;;;;;;4995736;28;20560;-73
2021/07/17 01:04:56;;;;;;;42.37;19.50;;;18.40;96.90;;;;;;4992071;28;20473;-73
2021/07/17 01:07:25;;;;;;;42.77;19.17;;;18.40;96.80;;;;;;4993387;28;20507;-74
2021/07/17 01:09:51;;;;;;;42.57;20.30;;;18.40;96.40;;;;;;4991614;28;20429;-74
2021/07/17 01:12:18;;;;;;;39.50;19.90;;;18.30;96.50;;;;;;4990943;28;20432;-75
2021/07/17 01:14:44;;;;;;;48.43;22.80;;;18.30;96.40;;;;;;4988279;28;20480;-75
2021/07/17 01:17:11;;;;;;;40.93;19.60;;;18.30;96.70;;;;;;4990495;28;20505;-75
2021/07/17 01:19:37;;;;;;;42.07;20.10;;;18.30;96.80;;;;;;4987168;28;20206;-74
2021/07/17 01:22:03;;;;;;;45.13;20.20;;;18.30;96.90;;;;;;4988122;28;20508;-76
2021/07/17 01:24:29;;;;;;;44.93;19.60;;;18.40;96.40;;;;;;4988016;28;20632;-74
2021/07/17 01:26:55;;;;;;;46.03;21.30;;;18.40;96.40;;;;;;4990617;28;20497;-75
2021/07/17 01:29:21;;;;;;;40.13;19.80;;;18.40;96.40;;;;;;4986857;28;21137;-73
2021/07/17 01:31:48;;;;;;;46.33;21.93;;;18.30;96.50;;;;;;4991472;28;20528;-74
2021/07/17 01:34:15;;;;;;;8.00;5.57;;;18.30;96.50;;;;;;4982389;28;20470;-73
2021/07/17 01:36:40;;;;;;;7.23;3.43;;;18.20;96.50;;;;;;4982464;28;20422;-74
2021/07/17 01:39:07;;;;;;;1.90;1.53;;;18.20;96.60;;;;;;4980142;28;20721;-74
2021/07/17 01:41:33;;;;;;;6.67;2.33;;;18.10;96.90;;;;;;4986993;28;20614;-74
2021/07/17 01:43:59;;;;;;;5.83;2.27;;;18.10;97.10;;;;;;4985671;28;20422;-75
2021/07/17 01:46:27;;;;;;;7.30;2.87;;;18.10;97.10;;;;;;4984876;28;20194;-73
2021/07/17 01:48:54;;;;;;;0.57;0.50;;;18.10;97.10;;;;;;4992182;28;20897;-74
2021/07/17 01:51:20;;;;;;;44.03;20.03;;;18.00;97.30;;;;;;4984718;28;20461;-74
2021/07/17 01:53:47;;;;;;;1.80;1.27;;;18.00;97.30;;;;;;4986871;28;20913;-74
2021/07/17 01:56:13;;;;;;;4.50;1.27;;;18.00;97.30;;;;;;4987775;28;20446;-73
2021/07/17 01:58:39;;;;;;;8.33;4.13;;;18.00;97.30;;;;;;4985949;28;20422;-75
2021/07/17 02:01:05;;;;;;;4.30;0.90;;;18.10;97.00;;;;;;4987687;28;20418;-74
2021/07/17 02:03:30;;;;;;;2.80;1.27;;;18.10;96.90;;;;;;4986805;28;20179;-74
2021/07/17 02:05:58;;;;;;;3.13;2.00;;;18.00;97.00;;;;;;4988762;28;20310;-75
2021/07/17 02:08:23;;;;;;;1.50;1.40;;;18.10;97.00;;;;;;4983777;28;20561;-75
2021/07/17 02:10:49;;;;;;;2.30;1.57;;;18.10;97.00;;;;;;4991849;28;20418;-74
2021/07/17 02:13:16;;;;;;;5.60;3.80;;;18.20;97.00;;;;;;4980859;28;20255;-75
2021/07/17 02:15:44;;;;;;;2.33;1.63;;;18.10;96.70;;;;;;4986018;28;20260;-75
2021/07/17 02:18:12;;;;;;;1.27;1.00;;;18.10;96.60;;;;;;4988217;28;20461;-75
2021/07/17 02:20:38;;;;;;;2.97;2.73;;;18.00;96.70;;;;;;4992121;28;20414;-75
2021/07/17 02:23:04;;;;;;;0.50;0.40;;;18.00;96.80;;;;;;4986805;28;20454;-75
2021/07/17 02:25:30;;;;;;;7.43;2.87;;;18.10;96.80;;;;;;5014358;28;20434;-75
2021/07/17 02:27:56;;;;;;;1.13;1.03;;;18.10;96.80;;;;;;4999863;28;20544;-75
2021/07/17 02:30:22;;;;;;;1.07;0.87;;;18.10;96.80;;;;;;4991108;28;20429;-75
2021/07/17 02:32:48;;;;;;;1.53;1.17;;;18.10;96.70;;;;;;4985878;28;20502;-74
2021/07/17 02:35:14;;;;;;;3.07;2.47;;;18.00;96.60;;;;;;4986950;28;21025;-75
2021/07/17 02:37:40;;;;;;;11.23;4.63;;;18.00;96.80;;;;;;4989798;28;20278;-75
2021/07/17 02:40:07;;;;;;;13.93;2.70;;;17.90;96.90;;;;;;4988146;28;20201;-74
2021/07/17 02:42:34;;;;;;;1.70;1.53;;;17.90;97.00;;;;;;4984547;28;20480;-73
2021/07/17 02:45:01;;;;;;;0.70;0.57;;;17.80;97.10;;;;;;4985203;28;20500;-73
2021/07/17 02:47:27;;;;;;;5.30;2.33;;;17.90;97.20;;;;;;4989571;28;20965;-73
2021/07/17 02:49:52;;;;;;;1.17;0.97;;;17.80;97.30;;;;;;4991152;28;20426;-74
2021/07/17 02:52:18;;;;;;;12.80;4.87;;;17.90;97.20;;;;;;4980360;28;20191;-74
2021/07/17 02:54:44;;;;;;;1.80;1.70;;;17.80;97.20;;;;;;4984784;28;20454;-74
2021/07/17 02:57:10;;;;;;;2.03;1.60;;;17.80;97.40;;;;;;4990689;28;20281;-74
2021/07/17 02:59:35;;;;;;;1.43;1.33;;;17.90;97.40;;;;;;4983084;28;20273;-74
2021/07/17 03:02:01;;;;;;;10.20;4.10;;;17.90;97.20;;;;;;4984553;28;20708;-73
2021/07/17 03:04:27;;;;;;;6.53;2.10;;;17.90;97.10;;;;;;4982148;28;20205;-73
2021/07/17 03:06:52;;;;;;;7.13;5.37;;;17.90;97.00;;;;;;4981725;28;20201;-73
2021/07/17 03:09:18;;;;;;;2.17;2.00;;;17.80;96.90;;;;;;4988305;28;20201;-74
2021/07/17 03:11:44;;;;;;;0.90;0.57;;;17.90;97.00;;;;;;4981649;28;20219;-74
2021/07/17 03:14:09;;;;;;;3.03;0.87;;;17.90;96.90;;;;;;4985589;28;20190;-74
2021/07/17 03:16:37;;;;;;;2.97;2.30;;;17.90;96.90;;;;;;4991787;28;20246;-74
2021/07/17 03:19:03;;;;;;;9.00;3.73;;;17.80;96.40;;;;;;4991229;28;20610;-74
2021/07/17 03:21:30;;;;;;;1.70;1.60;;;17.80;96.70;;;;;;4982570;28;20469;-75
2021/07/17 03:23:56;;;;;;;7.30;3.50;;;17.80;96.90;;;;;;4989765;28;21184;-74
2021/07/17 03:26:23;;;;;;;3.70;2.80;;;17.70;96.70;;;;;;4982934;28;20481;-74
2021/07/17 03:28:49;;;;;;;1.10;1.07;;;17.70;96.90;;;;;;4984866;28;20414;-75
2021/07/17 03:31:15;;;;;;;1.20;1.07;;;17.70;97.00;;;;;;4989445;28;20436;-74
2021/07/17 03:33:41;;;;;;;5.87;3.03;;;17.70;97.20;;;;;;4989628;28;20186;-74
2021/07/17 03:36:07;;;;;;;4.43;2.20;;;17.70;97.20;;;;;;4987897;28;20438;-74
2021/07/17 03:38:33;;;;;;;0.70;0.70;;;17.70;97.20;;;;;;4990400;28;20557;-74
2021/07/17 03:40:58;;;;;;;30.87;3.90;;;17.80;97.10;;;;;;4984792;28;20422;-75
2021/07/17 03:43:24;;;;;;;4.33;4.03;;;17.80;96.80;;;;;;4986949;28;20221;-76
2021/07/17 03:45:50;;;;;;;0.50;0.30;;;17.80;96.70;;;;;;4977983;28;20638;-76
2021/07/17 03:48:16;;;;;;;5.50;2.97;;;17.80;96.70;;;;;;4983839;28;20190;-75
2021/07/17 03:50:41;;;;;;;40.30;19.23;;;17.80;96.70;;;;;;4985939;28;20186;-75
2021/07/17 03:53:07;;;;;;;38.40;18.27;;;17.80;96.70;;;;;;4987661;28;20690;-74
2021/07/17 03:55:33;;;;;;;45.27;21.00;;;17.80;96.50;;;;;;4988101;28;20213;-75
2021/07/17 03:57:58;;;;;;;50.60;21.23;;;17.70;96.20;;;;;;4986568;28;20289;-74
2021/07/17 04:00:24;;;;;;;44.67;21.80;;;17.60;96.60;;;;;;4981173;28;20187;-74
2021/07/17 04:02:50;;;;;;;47.73;19.60;;;17.60;97.00;;;;;;4984814;28;20213;-74
2021/07/17 04:05:19;;;;;;;49.63;20.50;;;17.70;97.20;;;;;;4985997;28;20767;-73
2021/07/17 04:07:45;;;;;;;40.47;19.07;;;17.60;96.90;;;;;;4990358;28;20266;-74
2021/07/17 04:10:12;;;;;;;41.40;19.87;;;17.70;97.00;;;;;;4985747;28;20438;-74
2021/07/17 04:12:38;;;;;;;48.70;21.13;;;17.70;96.90;;;;;;4982551;28;20430;-74
2021/07/17 04:15:05;;;;;;;36.50;18.40;;;17.70;96.80;;;;;;4986836;28;21026;-75
2021/07/17 04:17:31;;;;;;;36.47;18.07;;;17.80;96.80;;;;;;4990002;28;20184;-74
2021/07/17 04:19:57;;;;;;;34.83;16.87;;;17.90;96.60;;;;;;4984065;28;20473;-74
2021/07/17 04:22:23;;;;;;;42.07;19.43;;;18.00;96.20;;;;;;4986048;28;20579;-74
2021/07/17 04:24:49;;;;;;;35.27;18.10;;;18.00;96.10;;;;;;4984539;28;20213;-74
2021/07/17 04:27:15;;;;;;;34.40;16.60;;;18.00;95.70;;;;;;4988836;28;20442;-74
2021/07/17 04:29:41;;;;;;;39.90;17.90;;;18.00;95.70;;;;;;4983745;28;20429;-73
2021/07/17 04:32:07;;;;;;;39.90;18.77;;;18.00;95.70;;;;;;4985241;28;20436;-74
2021/07/17 04:34:33;;;;;;;39.93;18.73;;;18.00;95.70;;;;;;4986872;28;20446;-73
2021/07/17 04:36:59;;;;;;;38.80;17.07;;;18.00;95.60;;;;;;4989939;28;20183;-75
2021/07/17 04:39:25;;;;;;;44.40;19.77;;;18.10;95.60;;;;;;4989433;28;20537;-74
2021/07/17 04:41:50;;;;;;;39.50;18.57;;;18.00;95.50;;;;;;4980641;28;20211;-74
2021/07/17 04:44:16;;;;;;;49.67;20.97;;;17.90;95.50;;;;;;4984829;28;20254;-74
2021/07/17 04:46:42;;;;;;;46.27;20.73;;;17.80;96.00;;;;;;5002738;28;20444;-74
2021/07/17 04:49:08;;;;;;;39.33;19.27;;;17.70;96.40;;;;;;4984718;28;20190;-74
2021/07/17 04:51:33;;;;;;;43.10;20.67;;;17.70;96.80;;;;;;4988053;28;20190;-73
2021/07/17 04:53:59;;;;;;;51.47;21.50;;;17.80;96.70;;;;;;4989077;28;20191;-74
2021/07/17 04:56:25;;;;;;;39.40;18.03;;;17.90;96.50;;;;;;4989674;28;20198;-74
2021/07/17 04:58:51;;;;;;;39.40;19.37;;;17.90;96.50;;;;;;4983947;28;20246;-74
2021/07/17 05:01:18;;;;;;;41.77;19.23;;;18.00;96.50;;;;;;4984284;28;20289;-76
2021/07/17 05:03:44;;;;;;;39.30;18.40;;;18.10;96.20;;;;;;4983387;28;20418;-76
2021/07/17 05:06:09;;;;;;;38.97;18.30;;;18.20;95.70;;;;;;4986134;28;20553;-75
2021/07/17 05:08:35;;;;;;;43.17;20.97;;;18.20;95.50;;;;;;4989566;28;20182;-75
2021/07/17 05:11:02;;;;;;;46.07;21.10;;;18.20;95.30;;;;;;4994178;28;20211;-75
2021/07/17 05:13:27;;;;;;;43.70;19.97;;;18.10;95.30;;;;;;4989503;28;20436;-75
2021/07/17 05:15:53;;;;;;;50.93;20.67;;;18.20;95.40;;;;;;4992941;28;20454;-74
2021/07/17 05:18:19;;;;;;;41.20;19.80;;;18.20;95.30;;;;;;4992783;28;20186;-75
2021/07/17 05:20:45;;;;;;;43.90;20.40;;;18.20;95.20;;;;;;4986452;28;20175;-75
2021/07/17 05:23:11;;;;;;;39.03;18.90;;;18.10;95.30;;;;;;4986310;28;20502;-74
2021/07/17 05:25:38;;;;;;;43.40;18.70;;;18.10;95.30;;;;;;4984799;28;20480;-76
2021/07/17 05:28:04;;;;;;;40.57;19.60;;;18.10;95.30;;;;;;4993125;28;20752;-75
2021/07/17 05:30:30;;;;;;;41.37;19.40;;;18.10;95.30;;;;;;4993545;28;20513;-74
2021/07/17 05:32:56;;;;;;;41.73;19.33;;;18.10;95.40;;;;;;4986533;28;20422;-75
2021/07/17 05:35:22;;;;;;;41.47;19.47;;;18.10;95.50;;;;;;4989244;28;20451;-76
2021/07/17 05:37:48;;;;;;;42.10;19.50;;;18.10;95.70;;;;;;4992989;28;20182;-75
2021/07/17 05:40:15;;;;;;;36.73;18.70;;;18.10;95.70;;;;;;4989237;28;20429;-75
2021/07/17 05:42:41;;;;;;;36.17;17.83;;;18.20;95.50;;;;;;4983027;28;20558;-75
2021/07/17 05:45:07;;;;;;;37.70;18.80;;;18.20;95.40;;;;;;4991941;28;21047;-73
2021/07/17 05:47:33;;;;;;;40.07;19.57;;;18.20;95.40;;;;;;4985253;28;20187;-74
2021/07/17 05:49:59;;;;;;;38.77;18.47;;;18.30;95.30;;;;;;4987879;28;20789;-74
2021/07/17 05:52:24;;;;;;;37.77;16.77;;;18.30;95.00;;;;;;4984104;28;20274;-74
2021/07/17 05:54:50;;;;;;;34.93;18.40;;;18.40;95.00;;;;;;4991538;28;20742;-75
2021/07/17 05:57:16;;;;;;;35.57;17.43;;;18.40;94.90;;;;;;4988265;28;20207;-74
2021/07/17 05:59:42;;;;;;;30.50;17.03;;;18.50;94.80;;;;;;4991335;28;20179;-74
2021/07/17 06:02:08;;;;;;;33.90;17.70;;;18.40;94.60;;;;;;4991988;28;20276;-75
2021/07/17 06:04:34;;;;;;;35.70;17.37;;;18.40;94.60;;;;;;4983756;28;20496;-74
2021/07/17 06:07:00;;;;;;;32.53;16.50;;;18.50;94.60;;;;;;4983720;28;20891;-75
2021/07/17 06:09:25;;;;;;;34.37;17.50;;;18.60;94.60;;;;;;4990643;28;20187;-75
2021/07/17 06:11:51;;;;;;;35.77;18.70;;;18.70;94.50;;;;;;4991460;28;20192;-74
2021/07/17 06:14:17;;;;;;;33.10;17.93;;;18.70;94.00;;;;;;4991538;28;20214;-74
2021/07/17 06:16:44;;;;;;;45.27;19.33;;;18.70;94.10;;;;;;4986776;28;20481;-74
2021/07/17 06:19:11;;;;;;;34.13;17.63;;;18.50;94.30;;;;;;4992023;28;20517;-73
2021/07/17 06:21:37;;;;;;;36.80;17.13;;;18.40;94.60;;;;;;4990713;28;20557;-74
2021/07/17 06:24:03;;;;;;;33.10;17.70;;;18.40;95.20;;;;;;4987595;28;20513;-74
2021/07/17 06:26:29;;;;;;;36.67;17.13;;;18.40;95.30;;;;;;4989724;28;20418;-74
2021/07/17 06:28:54;;;;;;;38.77;17.73;;;18.40;95.20;;;;;;4992600;28;20730;-74
2021/07/17 06:31:20;;;;;;;33.17;15.80;;;18.40;95.00;;;;;;4990077;28;20571;-75
2021/07/17 06:33:47;;;;;;;37.13;16.40;;;18.30;94.90;;;;;;4985075;28;21026;-74
2021/07/17 06:36:13;;;;;;;37.73;16.13;;;18.20;95.30;;;;;;4990007;28;20302;-74
2021/07/17 06:38:38;;;;;;;33.60;16.13;;;18.20;95.60;;;;;;4995647;28;20426;-74
2021/07/17 06:41:04;;;;;;;40.63;18.77;;;18.20;95.70;;;;;;4993889;28;20234;-72
2021/07/17 06:43:30;;;;;;;35.83;17.67;;;18.30;95.60;;;;;;4993868;28;20587;-73
2021/07/17 06:45:56;;;;;;;38.40;18.70;;;18.30;95.50;;;;;;4990079;28;20285;-72
2021/07/17 06:48:23;;;;;;;34.53;18.00;;;18.40;95.40;;;;;;4987170;28;20942;-73
2021/07/17 06:50:48;;;;;;;33.50;17.40;;;18.50;95.40;;;;;;4981475;28;20529;-73
2021/07/17 06:53:15;;;;;;;40.97;19.63;;;18.60;95.10;;;;;;4988640;28;20535;-72
2021/07/17 06:55:41;;;;;;;41.93;21.30;;;18.70;94.70;;;;;;4983115;28;20759;-73
2021/07/17 06:58:07;;;;;;;41.93;20.40;;;18.70;94.30;;;;;;4985382;28;20515;-74
2021/07/17 07:00:34;;;;;;;36.30;18.50;;;18.80;94.00;;;;;;4982779;28;20512;-74
2021/07/17 07:03:04;;;;;;;35.60;17.43;;;18.80;93.90;;;;;;4991959;28;20464;-73
2021/07/17 07:05:30;;;;;;;38.33;16.37;;;19.00;93.60;;;;;;4983318;28;20446;-74
2021/07/17 07:07:56;;;;;;;37.10;18.37;;;19.00;93.40;;;;;;4983019;28;20423;-74
2021/07/17 07:10:22;;;;;;;33.60;15.90;;;19.00;93.40;;;;;;4983476;28;20191;-74
2021/07/17 07:12:48;;;;;;;36.77;17.57;;;19.10;93.40;;;;;;4980298;28;21019;-74
2021/07/17 07:15:14;;;;;;;31.73;17.07;;;19.10;93.00;;;;;;4980514;28;20982;-73
2021/07/17 07:17:40;;;;;;;33.60;16.60;;;19.10;93.30;;;;;;4987993;28;20420;-73
2021/07/17 07:20:08;;;;;;;42.57;17.83;;;19.10;93.60;;;;;;4989030;28;20456;-74
2021/07/17 07:22:34;;;;;;;33.07;16.73;;;19.20;93.40;;;;;;4987353;28;20470;-73
2021/07/17 07:24:59;;;;;;;29.67;15.87;;;19.20;93.10;;;;;;4984417;28;20518;-73
2021/07/17 07:27:25;;;;;;;35.93;17.67;;;19.20;92.90;;;;;;4986202;28;20175;-74
2021/07/17 07:29:51;;;;;;;28.87;16.07;;;19.20;92.70;;;;;;4985385;28;20179;-74
2021/07/17 07:32:17;;;;;;;28.70;15.50;;;19.20;93.00;;;;;;4987177;28;20198;-74
2021/07/17 07:34:43;;;;;;;48.73;23.20;;;19.30;93.20;;;;;;4979300;28;20300;-73
2021/07/17 07:37:08;;;;;;;38.70;22.40;;;19.60;93.00;;;;;;4982499;28;20195;-72
2021/07/17 07:39:35;;;;;;;36.67;17.17;;;19.60;92.00;;;;;;4984046;28;20191;-74
2021/07/17 07:42:01;;;;;;;35.33;18.10;;;19.60;92.10;;;;;;4976038;28;20210;-74
2021/07/17 07:44:28;;;;;;;35.43;17.00;;;19.60;92.10;;;;;;4991311;28;20445;-73
2021/07/17 07:46:54;;;;;;;37.13;16.70;;;19.60;91.70;;;;;;4990141;28;20424;-72
2021/07/17 07:49:20;;;;;;;29.80;15.67;;;19.50;92.20;;;;;;4992570;28;20428;-74
2021/07/17 07:51:46;;;;;;;33.43;15.87;;;19.50;92.20;;;;;;4991318;28;20867;-73
2021/07/17 07:54:12;;;;;;;33.57;16.10;;;19.50;92.30;;;;;;4984566;28;20193;-73
2021/07/17 07:56:38;;;;;;;38.07;17.27;;;19.60;92.00;;;;;;4989490;28;20507;-73
2021/07/17 07:59:04;;;;;;;36.37;17.13;;;19.40;92.60;;;;;;4990400;28;20192;-73
2021/07/17 08:01:30;;;;;;;44.17;18.87;;;19.30;93.10;;;;;;4989796;28;20422;-74
2021/07/17 08:03:55;;;;;;;42.43;21.63;;;19.20;93.30;;;;;;4989739;28;20271;-73
2021/07/17 08:06:21;;;;;;;44.23;20.50;;;19.10;93.60;;;;;;4990018;28;20203;-73
2021/07/17 08:08:47;;;;;;;35.83;17.97;;;19.00;93.70;;;;;;4990160;28;20696;-74
2021/07/17 08:11:13;;;;;;;40.43;18.33;;;19.00;94.40;;;;;;4989614;28;20196;-75
2021/07/17 08:13:39;;;;;;;37.47;19.07;;;19.00;94.60;;;;;;4986191;28;20514;-74
2021/07/17 08:16:04;;;;;;;42.53;20.30;;;18.90;94.80;;;;;;4982893;28;20213;-71
2021/07/17 08:18:31;;;;;;;47.97;19.10;;;18.70;95.00;;;;;;4984827;28;20415;-73
2021/07/17 08:20:57;;;;;;;39.93;20.20;;;18.70;95.50;;;;;;4989418;28;20192;-73
2021/07/17 08:23:23;;;;;;;39.57;18.93;;;18.60;95.90;;;;;;4982909;28;20471;-74
2021/07/17 08:25:53;;;;;;;39.93;18.20;;;18.60;96.10;;;;;;4988458;28;20437;-74
2021/07/17 08:28:18;;;;;;;42.00;19.13;;;18.60;96.20;;;;;;4989650;28;20423;-74
2021/07/17 08:30:44;;;;;;;39.60;19.20;;;18.70;96.20;;;;;;4987304;28;20765;-74
2021/07/17 08:33:10;;;;;;;48.27;19.97;;;18.70;96.00;;;;;;4987564;28;20717;-74
2021/07/17 08:35:36;;;;;;;42.17;20.60;;;18.70;96.20;;;;;;4989056;28;20231;-73
2021/07/17 08:38:03;;;;;;;46.97;22.27;;;18.90;96.30;;;;;;4989666;28;20516;-73
2021/07/17 08:40:29;;;;;;;42.13;18.30;;;19.00;96.40;;;;;;4986892;28;20541;-75
2021/07/17 08:42:55;;;;;;;40.17;20.23;;;19.20;95.60;;;;;;4978629;28;20543;-75
2021/07/17 08:45:23;;;;;;;42.50;19.90;;;19.30;94.80;;;;;;4991384;28;20820;-74
2021/07/17 08:47:51;;;;;;;41.37;18.70;;;19.30;94.00;;;;;;4993068;28;20429;-74
2021/07/17 08:50:22;;;;;;;39.70;20.97;;;19.30;94.10;;;;;;4988295;28;20495;-73
2021/07/17 08:52:51;;;;;;;44.33;20.27;;;19.50;94.10;;;;;;4992861;28;20457;-73
2021/07/17 08:55:17;;;;;;;42.33;20.80;;;19.60;93.50;;;;;;4992721;28;20544;-74
2021/07/17 08:57:43;;;;;;;40.83;21.50;;;19.80;92.60;;;;;;4993137;28;20596;-75
2021/07/17 09:00:11;;;;;;;34.90;16.97;;;20.00;92.50;;;;;;4993037;28;20457;-74
2021/07/17 09:02:40;;;;;;;36.00;20.00;;;20.00;91.10;;;;;;4993147;28;20457;-75
2021/07/17 09:05:17;;;;;;;44.97;17.57;;;20.10;91.30;;;;;;4992750;28;20438;-74
2021/07/17 09:07:44;;;;;;;35.40;19.00;;;20.10;91.50;;;;;;4993033;28;20418;-74
2021/07/17 09:10:33;;;;;;;35.13;17.70;;;20.30;91.30;;;;;;4993106;28;20476;-73
2021/07/17 09:13:29;;;;;;;33.77;17.67;;;20.40;90.50;;;;;;4986058;28;20433;-73
2021/07/17 09:16:09;;;;;;;31.87;16.00;;;20.40;89.70;;;;;;4999341;28;20481;-74
2021/07/17 09:18:37;;;;;;;27.27;17.37;;;20.40;89.70;;;;;;5011696;28;20485;-74
2021/07/17 09:21:06;;;;;;;38.77;17.47;;;20.30;89.70;;;;;;4999550;28;20418;-72
2021/07/17 09:23:35;;;;;;;31.97;16.30;;;20.20;90.50;;;;;;4988056;28;20480;-74
2021/07/17 09:26:15;;;;;;;37.73;17.03;;;20.20;90.80;;;;;;4992956;28;20543;-73
2021/07/17 09:28:42;;;;;;;33.90;16.70;;;20.20;90.80;;;;;;4986394;28;20938;-73
2021/07/17 09:31:08;;;;;;;37.47;16.00;;;20.30;90.50;;;;;;4988442;28;20908;-73
2021/07/17 09:33:35;;;;;;;31.80;16.80;;;20.30;90.70;;;;;;4992133;28;20434;-73
2021/07/17 09:36:01;;;;;;;35.43;18.70;;;20.20;90.50;;;;;;4992084;28;20524;-74
2021/07/17 09:38:32;;;;;;;36.77;18.37;;;20.10;90.80;;;;;;4991674;28;20596;-74
2021/07/17 09:41:04;;;;;;;34.77;16.53;;;20.10;91.20;;;;;;4993008;28;20187;-74
2021/07/17 09:43:43;;;;;;;35.90;17.90;;;20.20;91.40;;;;;;4984983;28;20473;-74
2021/07/17 09:46:35;;;;;;;40.93;18.63;;;20.20;91.40;;;;;;4992179;28;20463;-72
2021/07/17 09:49:03;;;;;;;32.50;16.70;;;20.20;91.20;;;;;;4986309;28;20442;-75
2021/07/17 09:51:34;;;;;;;42.67;16.63;;;20.20;91.20;;;;;;4984666;28;20414;-74
2021/07/17 09:54:06;;;;;;;33.03;16.90;;;20.10;91.00;;;;;;4984741;28;20438;-73
2021/07/17 09:56:38;;;;;;;32.53;16.83;;;20.10;91.00;;;;;;4986148;28;20890;-73
2021/07/17 09:59:06;;;;;;;37.03;17.13;;;20.10;90.90;;;;;;4988842;28;20420;-72
2021/07/17 10:01:37;;;;;;;35.40;18.67;;;20.10;91.30;;;;;;4991841;28;21324;-75
2021/07/17 10:04:04;;;;;;;33.70;17.30;;;20.20;91.40;;;;;;4991347;28;20422;-73
2021/07/17 10:06:35;;;;;;;36.97;17.40;;;20.30;91.00;;;;;;4991690;28;20445;-73
2021/07/17 10:09:03;;;;;;;28.40;16.40;;;20.50;90.70;;;;;;4990758;28;20410;-73
2021/07/17 10:11:30;;;;;;;40.40;20.90;;;20.70;89.30;;;;;;4991914;28;20456;-75
2021/07/17 10:13:57;;;;;;;30.73;17.17;;;20.60;89.90;;;;;;4991789;28;20414;-76
2021/07/17 10:16:25;;;;;;;34.40;18.50;;;20.70;89.90;;;;;;4993945;28;20556;-73
2021/07/17 10:18:55;;;;;;;39.50;17.83;;;20.90;88.00;;;;;;4992128;28;20928;-73
2021/07/17 10:21:22;;;;;;;36.43;19.73;;;20.80;88.70;;;;;;4991261;28;20422;-72
2021/07/17 10:23:49;;;;;;;33.93;17.33;;;20.80;89.30;;;;;;4991148;28;20435;-74
2021/07/17 10:26:16;;;;;;;34.33;16.73;;;20.80;88.70;;;;;;4987359;28;20824;-74
2021/07/17 10:28:41;;;;;;;32.97;17.43;;;20.70;89.30;;;;;;4991802;28;21217;-74
2021/07/17 10:31:08;;;;;;;38.20;18.07;;;20.70;89.30;;;;;;4991297;28;20524;-72
2021/07/17 10:33:35;;;;;;;31.40;16.07;;;20.70;89.90;;;;;;4982657;28;20426;-72
2021/07/17 10:36:11;;;;;;;44.83;18.10;;;20.80;89.50;;;;;;4991705;28;20887;-74
2021/07/17 10:38:42;;;;;;;43.20;18.57;;;21.00;88.00;;;;;;4986135;28;20444;-73
2021/07/17 10:41:12;;;;;;;42.80;18.17;;;21.00;88.70;;;;;;4984278;28;20436;-73
2021/07/17 10:43:38;;;;;;;36.60;19.83;;;21.10;88.40;;;;;;4990924;28;20458;-74
2021/07/17 10:46:04;;;;;;;30.67;17.40;;;21.00;88.40;;;;;;4991545;28;20642;-72
2021/07/17 10:48:33;;;;;;;35.70;17.50;;;21.00;88.00;;;;;;4991659;28;20444;-74
2021/07/17 10:51:01;;;;;;;36.67;17.67;;;21.10;88.00;;;;;;4987364;28;20249;-72
2021/07/17 10:53:48;;;;;;;32.73;16.90;;;21.20;87.30;;;;;;4991124;28;20595;-72
2021/07/17 10:56:28;;;;;;;30.00;16.50;;;21.20;87.10;;;;;;4990950;28;20453;-74
2021/07/17 10:59:10;;;;;;;39.17;17.47;;;21.30;87.00;;;;;;4985036;28;20451;-74
2021/07/17 11:02:02;;;;;;;28.50;16.50;;;21.40;87.00;;;;;;4981858;28;20583;-73
2021/07/17 11:04:47;;;;;;;27.00;15.63;;;21.50;86.80;;;;;;4990031;28;20459;-75
2021/07/17 11:07:16;;;;;;;29.90;17.00;;;21.50;86.20;;;;;;4989120;28;20428;-73
2021/07/17 11:09:55;;;;;;;28.47;16.53;;;21.60;86.20;;;;;;4988887;28;20427;-73
2021/07/17 11:12:22;;;;;;;31.13;17.53;;;21.60;86.00;;;;;;4980536;28;20942;-73
2021/07/17 11:14:48;;;;;;;35.70;17.00;;;21.50;86.20;;;;;;4989317;28;20449;-76
2021/07/17 11:17:43;;;;;;;29.30;16.57;;;21.20;87.60;;;;;;4989623;28;20875;-73
2021/07/17 11:20:26;;;;;;;35.23;17.40;;;21.20;88.00;;;;;;4981052;28;20964;-73
2021/07/17 11:23:14;;;;;;;33.90;17.10;;;21.10;88.10;;;;;;4986606;28;20473;-74
2021/07/17 11:25:59;;;;;;;36.80;18.03;;;21.10;88.70;;;;;;4984437;28;20447;-74
2021/07/17 11:28:51;;;;;;;35.07;18.07;;;21.10;88.00;;;;;;4989025;28;20430;-73
2021/07/17 11:31:33;;;;;;;36.97;18.33;;;21.10;88.40;;;;;;4990370;28;20417;-74
2021/07/17 11:34:17;;;;;;;36.63;18.63;;;21.10;88.40;;;;;;4989630;28;20414;-74
2021/07/17 11:37:06;;;;;;;33.53;18.30;;;21.10;88.70;;;;;;4990639;28;20433;-73
2021/07/17 11:39:35;;;;;;;40.47;18.77;;;21.10;89.00;;;;;;4984710;28;20484;-76
2021/07/17 11:42:03;;;;;;;33.40;17.77;;;21.20;88.70;;;;;;4991232;28;20928;-74
2021/07/17 11:44:34;;;;;;;28.80;16.97;;;21.40;87.80;;;;;;4984886;28;20454;-73
2021/07/17 11:47:01;;;;;;;33.67;17.27;;;21.50;87.30;;;;;;4992687;28;20421;-74
2021/07/17 11:49:33;;;;;;;32.40;16.60;;;21.60;86.80;;;;;;4992020;28;20787;-74
2021/07/17 11:52:02;;;;;;;31.87;17.73;;;21.60;86.20;;;;;;4990446;28;20510;-73
2021/07/17 11:54:34;;;;;;;33.93;16.70;;;21.60;86.50;;;;;;4990206;28;20439;-73
2021/07/17 11:57:10;;;;;;;31.53;18.20;;;21.60;86.90;;;;;;4990717;28;20454;-73
2021/07/17 11:59:38;;;;;;;30.87;16.03;;;21.60;87.30;;;;;;4989650;28;20521;-74
2021/07/17 12:02:12;;;;;;;36.20;16.53;;;21.60;86.80;;;;;;4985255;28;20532;-74
2021/07/17 12:04:44;;;;;;;30.97;16.70;;;21.50;87.30;;;;;;4990005;28;20917;-74
2021/07/17 12:07:12;;;;;;;32.77;17.83;;;21.50;87.40;;;;;;4987948;28;20890;-73
2021/07/17 12:09:47;;;;;;;28.80;16.30;;;21.60;87.00;;;;;;4988385;28;20428;-74
2021/07/17 12:12:34;;;;;;;34.03;16.93;;;21.50;87.70;;;;;;4988047;28;20435;-74
2021/07/17 12:15:01;;;;;;;33.60;16.10;;;21.60;87.70;;;;;;4989931;28;20447;-73
2021/07/17 12:17:28;;;;;;;30.47;16.77;;;21.60;86.80;;;;;;4993728;28;20431;-74
2021/07/17 12:20:20;;;;;;;27.30;15.77;;;21.40;87.10;;;;;;4993135;28;21310;-73
2021/07/17 12:22:57;;;;;;;29.83;16.47;;;21.30;88.00;;;;;;4986150;28;20489;-74
2021/07/17 12:25:26;;;;;;;30.77;17.27;;;21.40;88.00;;;;;;4997822;28;20471;-75
2021/07/17 12:28:02;;;;;;;29.80;16.00;;;21.60;87.40;;;;;;5016009;28;20430;-73
2021/07/17 12:30:33;;;;;;;33.30;17.23;;;21.80;86.80;;;;;;5002476;28;20420;-73
2021/07/17 12:33:27;;;;;;;31.03;16.60;;;21.90;85.50;;;;;;4994244;28;20997;-73
2021/07/17 12:36:15;;;;;;;31.10;16.63;;;22.10;84.60;;;;;;4988386;28;20515;-72